Time;durP1;ratioP1;P1;durP2;ratioP2;P2;SDS_P1;SDS_P2;PMS_P1;PMS_P2;Temp;Humidity;BMP_temperature;BMP_pressure;BME280_temperature;BME280_humidity;BME280_pressure;Samples;Min_cycle;Max_cycle;Signal;HPM_P1;HPM_P2
2022/10/03 00:01:20;;;;;;;2.07;1.87;;;10.60;99.90;;;;;;4978887;28;20204;-87
2022/10/03 00:04:05;;;;;;;2.57;1.97;;;10.50;99.90;;;;;;4978224;28;20186;-87
2022/10/03 00:06:34;;;;;;;3.47;2.10;;;10.50;99.90;;;;;;4995156;28;20253;-87
2022/10/03 00:09:14;;;;;;;2.33;1.83;;;10.40;99.90;;;;;;4994417;28;20207;-87
2022/10/03 00:12:10;;;;;;;3.70;2.60;;;10.40;99.90;;;;;;4975366;28;20176;-87
2022/10/03 00:14:57;;;;;;;2.93;2.37;;;10.40;99.90;;;;;;4991673;28;20208;-87
2022/10/03 00:17:25;;;;;;;3.93;2.47;;;10.40;99.90;;;;;;4994266;28;20183;-87
2022/10/03 00:19:57;;;;;;;3.80;2.53;;;10.40;99.90;;;;;;4978446;28;20258;-87
2022/10/03 00:23:01;;;;;;;2.60;2.03;;;10.50;99.90;;;;;;5012012;28;20194;-87
2022/10/03 00:25:36;;;;;;;4.60;2.23;;;10.50;99.90;;;;;;4978784;28;20227;-87
2022/10/03 00:28:33;;;;;;;3.27;2.33;;;10.40;99.90;;;;;;4994117;28;20210;-87
2022/10/03 00:31:13;;;;;;;12.93;2.57;;;10.40;99.90;;;;;;4977836;28;20175;-87
2022/10/03 00:33:39;;;;;;;29.70;2.80;;;10.20;99.90;;;;;;4978304;28;20172;-87
2022/10/03 00:36:22;;;;;;;18.80;2.17;;;10.00;99.90;;;;;;4994308;28;20247;-87
2022/10/03 00:39:03;;;;;;;24.10;3.07;;;9.90;99.90;;;;;;4978203;28;20183;-87
2022/10/03 00:41:38;;;;;;;4.77;2.67;;;9.80;99.90;;;;;;4978384;28;20179;-87
2022/10/03 00:44:28;;;;;;;7.50;3.53;;;9.90;99.90;;;;;;4994481;28;20174;-87
2022/10/03 00:47:28;;;;;;;8.03;3.63;;;10.00;99.90;;;;;;4990326;28;20212;-87
2022/10/03 00:50:18;;;;;;;9.57;3.40;;;10.00;99.90;;;;;;5008520;28;20192;-87
2022/10/03 00:53:05;;;;;;;3.73;3.30;;;10.10;99.90;;;;;;4994552;28;20186;-87
2022/10/03 00:55:46;;;;;;;4.60;3.70;;;10.10;99.90;;;;;;4994039;28;20203;-87
2022/10/03 00:58:19;;;;;;;4.63;3.50;;;10.10;99.90;;;;;;4978074;28;20183;-87
2022/10/03 01:00:50;;;;;;;4.60;4.00;;;10.10;99.90;;;;;;4978368;28;20179;-87
2022/10/03 01:03:25;;;;;;;6.37;3.10;;;10.10;99.90;;;;;;4978843;28;20179;-87
2022/10/03 01:06:36;;;;;;;18.87;3.80;;;10.00;99.90;;;;;;4975145;28;20293;-87
2022/10/03 01:09:16;;;;;;;4.27;3.10;;;10.00;99.90;;;;;;4997004;28;20215;-87
2022/10/03 01:12:20;;;;;;;6.33;3.67;;;10.10;99.90;;;;;;4978371;28;20715;-87
2022/10/03 01:14:57;;;;;;;3.23;2.63;;;10.20;99.90;;;;;;5007050;28;20816;-87
2022/10/03 01:18:02;;;;;;;54.97;4.60;;;10.20;99.90;;;;;;4993620;28;20183;-87
2022/10/03 01:20:55;;;;;;;20.40;2.97;;;10.00;99.90;;;;;;4931075;29;20189;-87
2022/10/03 01:23:43;;;;;;;2.63;2.40;;;9.90;99.90;;;;;;4931746;29;20334;-87
2022/10/03 01:26:48;;;;;;;21.27;3.00;;;9.90;99.90;;;;;;4967283;28;20219;-87
2022/10/03 01:32:24;;;;;;;4.00;2.47;;;9.70;99.90;;;;;;4993355;28;20183;-87
2022/10/03 01:35:08;;;;;;;2.83;2.63;;;9.60;99.90;;;;;;4993588;28;20270;-87
2022/10/03 01:38:02;;;;;;;3.53;2.90;;;9.70;99.90;;;;;;4993259;28;20183;-87
2022/10/03 01:40:36;;;;;;;4.67;3.00;;;9.70;99.90;;;;;;4977261;28;20214;-87
2022/10/03 01:43:05;;;;;;;6.23;3.20;;;9.60;99.90;;;;;;4993555;28;20175;-87
2022/10/03 01:45:37;;;;;;;3.83;3.43;;;9.60;99.90;;;;;;4993003;28;20676;-87
2022/10/03 01:48:18;;;;;;;4.43;3.60;;;9.70;99.90;;;;;;4977005;28;20694;-87
2022/10/03 01:51:00;;;;;;;6.40;3.67;;;9.70;99.90;;;;;;4977053;28;20180;-86
2022/10/03 01:53:37;;;;;;;3.20;2.90;;;9.70;99.90;;;;;;4977132;28;20326;-87
2022/10/03 01:56:28;;;;;;;4.13;3.70;;;9.70;99.90;;;;;;4976729;28;20267;-87
2022/10/03 01:59:18;;;;;;;5.30;3.90;;;9.60;99.90;;;;;;4977064;28;20183;-87
2022/10/03 02:01:58;;;;;;;4.80;4.30;;;9.70;99.90;;;;;;4973446;28;20282;-87
2022/10/03 02:04:33;;;;;;;3.87;3.33;;;9.70;99.90;;;;;;4990123;28;20187;-87
2022/10/03 02:07:48;;;;;;;4.17;3.50;;;9.70;99.90;;;;;;4973450;28;20510;-87
2022/10/03 02:10:32;;;;;;;3.70;3.30;;;9.70;99.90;;;;;;4965799;28;20190;-87
2022/10/03 02:13:20;;;;;;;3.67;3.37;;;9.70;99.90;;;;;;4966038;28;20236;-87
2022/10/03 02:16:08;;;;;;;4.57;3.47;;;9.80;99.90;;;;;;4983257;28;20195;-87
2022/10/03 02:18:38;;;;;;;3.90;3.03;;;9.80;99.90;;;;;;5013045;28;20262;-87
2022/10/03 02:21:04;;;;;;;4.07;3.67;;;9.90;99.90;;;;;;4996650;28;20191;-86
2022/10/03 02:23:30;;;;;;;5.10;3.60;;;9.90;99.90;;;;;;4980575;28;20229;-87
2022/10/03 02:26:25;;;;;;;3.90;3.60;;;9.90;99.90;;;;;;4980942;28;20230;-87
2022/10/03 02:29:40;;;;;;;4.23;3.47;;;9.90;99.90;;;;;;4980207;28;20221;-87
2022/10/03 02:32:44;;;;;;;3.70;3.37;;;9.80;99.90;;;;;;4980146;28;20195;-87
2022/10/03 02:35:13;;;;;;;3.50;3.20;;;9.80;99.90;;;;;;4969021;28;20181;-87
2022/10/03 02:38:04;;;;;;;4.73;3.50;;;9.70;99.90;;;;;;5001831;28;20199;-87
2022/10/03 02:40:55;;;;;;;4.23;3.37;;;9.80;99.90;;;;;;4980057;28;20183;-87
2022/10/03 02:43:34;;;;;;;3.90;2.80;;;9.70;99.90;;;;;;4980361;28;20270;-86
2022/10/03 02:46:41;;;;;;;4.07;3.47;;;9.70;99.90;;;;;;4979975;28;20211;-87
2022/10/03 02:49:45;;;;;;;6.17;4.10;;;9.70;99.90;;;;;;5012676;28;20210;-87
2022/10/03 02:52:29;;;;;;;8.60;3.90;;;9.60;99.90;;;;;;4996377;28;20201;-87
2022/10/03 02:55:31;;;;;;;5.87;3.97;;;9.60;99.90;;;;;;4979609;28;20253;-87
2022/10/03 02:58:18;;;;;;;5.77;3.93;;;9.50;99.90;;;;;;4979956;28;20186;-87
2022/10/03 03:01:03;;;;;;;6.43;4.43;;;9.50;99.90;;;;;;4979491;28;20179;-87
2022/10/03 03:04:20;;;;;;;5.23;4.30;;;9.60;99.90;;;;;;4980021;28;20187;-87
2022/10/03 03:07:09;;;;;;;5.37;4.50;;;9.60;99.90;;;;;;4969087;28;20275;-87
2022/10/03 03:10:00;;;;;;;6.63;5.37;;;9.60;99.90;;;;;;4979477;28;20365;-87
2022/10/03 03:12:57;;;;;;;8.03;6.10;;;9.70;99.90;;;;;;4979973;28;20188;-87
2022/10/03 03:15:43;;;;;;;7.70;6.03;;;9.80;99.90;;;;;;4995669;28;20191;-87
2022/10/03 03:18:18;;;;;;;6.57;5.07;;;9.80;99.90;;;;;;5008720;28;20191;-87
2022/10/03 03:21:07;;;;;;;6.40;4.43;;;9.90;99.90;;;;;;5019501;28;20191;-87
2022/10/03 03:23:40;;;;;;;4.33;3.80;;;9.90;99.90;;;;;;4995529;28;20194;-87
2022/10/03 03:26:12;;;;;;;3.30;3.00;;;10.00;99.90;;;;;;5013294;28;20671;-87
2022/10/03 03:28:47;;;;;;;6.30;3.40;;;10.00;99.90;;;;;;4994125;28;20233;-87
2022/10/03 03:31:24;;;;;;;3.80;3.27;;;10.00;99.90;;;;;;4979372;28;20194;-87
2022/10/03 03:34:13;;;;;;;3.77;2.97;;;9.90;99.90;;;;;;4975669;28;20251;-87
2022/10/03 03:37:10;;;;;;;5.00;2.77;;;10.00;99.90;;;;;;5008566;28;20208;-87
2022/10/03 03:40:06;;;;;;;2.60;2.40;;;10.00;99.90;;;;;;5024978;28;20282;-87
2022/10/03 03:43:07;;;;;;;3.93;2.53;;;10.00;99.90;;;;;;4995159;28;20255;-87
2022/10/03 03:45:42;;;;;;;2.93;2.50;;;10.00;99.90;;;;;;4972827;28;20211;-87
2022/10/03 03:48:37;;;;;;;2.40;2.20;;;10.00;99.90;;;;;;5025651;28;20237;-87
2022/10/03 03:51:28;;;;;;;2.50;2.30;;;10.00;99.90;;;;;;4978944;28;20197;-87
2022/10/03 03:53:53;;;;;;;2.57;2.37;;;10.00;99.90;;;;;;4979089;28;20179;-87
2022/10/03 03:56:31;;;;;;;2.30;2.10;;;9.90;99.90;;;;;;4995105;28;20199;-87
2022/10/03 03:59:06;;;;;;;2.03;1.90;;;9.90;99.90;;;;;;4994931;28;20286;-87
2022/10/03 04:01:57;;;;;;;2.27;2.07;;;9.90;99.90;;;;;;4978656;28;20178;-87
2022/10/03 04:05:00;;;;;;;2.30;2.10;;;9.90;99.90;;;;;;5014045;28;20281;-87
2022/10/03 04:07:50;;;;;;;2.87;2.10;;;9.90;99.90;;;;;;5031459;28;20190;-87
2022/10/03 04:10:28;;;;;;;1.90;1.80;;;9.80;99.90;;;;;;4996530;28;20187;-87
2022/10/03 04:13:39;;;;;;;2.40;2.20;;;9.80;99.90;;;;;;4997093;28;20167;-87
2022/10/03 04:16:10;;;;;;;3.07;2.60;;;9.80;99.90;;;;;;4918977;29;20214;-87
2022/10/03 04:19:02;;;;;;;2.47;2.27;;;9.90;99.90;;;;;;4998984;28;20191;-86
2022/10/03 04:21:39;;;;;;;2.47;2.27;;;9.80;99.90;;;;;;4995360;28;20195;-87
2022/10/03 04:24:56;;;;;;;3.43;3.13;;;9.80;99.90;;;;;;4979459;28;20209;-87
2022/10/03 04:27:49;;;;;;;5.37;4.30;;;9.80;99.90;;;;;;4980289;28;20199;-87
2022/10/03 04:30:21;;;;;;;7.23;4.73;;;9.80;99.90;;;;;;5011461;28;20217;-86
2022/10/03 04:33:09;;;;;;;5.57;4.93;;;9.80;99.90;;;;;;4979158;28;20182;-86
2022/10/03 04:35:56;;;;;;;6.47;5.07;;;9.90;99.90;;;;;;4995248;28;20210;-86
2022/10/03 04:38:43;;;;;;;6.57;5.70;;;9.90;99.90;;;;;;5010426;28;20187;-87
2022/10/03 04:41:41;;;;;;;8.07;5.50;;;10.00;99.90;;;;;;4978219;28;20183;-86
2022/10/03 04:44:39;;;;;;;5.90;4.40;;;10.00;99.90;;;;;;4978038;28;20176;-87
2022/10/03 04:47:15;;;;;;;4.23;3.83;;;9.90;99.90;;;;;;4994101;28;20297;-87
2022/10/03 04:50:25;;;;;;;5.50;3.97;;;9.90;99.90;;;;;;5010337;28;20293;-87
2022/10/03 04:52:56;;;;;;;6.73;3.53;;;9.90;99.90;;;;;;5010464;28;20628;-86
2022/10/03 04:55:59;;;;;;;5.77;3.77;;;9.90;99.90;;;;;;5010192;28;20223;-87
2022/10/03 04:58:36;;;;;;;5.83;3.37;;;10.00;99.90;;;;;;4977628;28;20195;-87
2022/10/03 05:01:17;;;;;;;4.20;3.63;;;10.00;99.90;;;;;;4993822;28;20179;-87
2022/10/03 05:04:23;;;;;;;4.03;2.80;;;10.00;99.90;;;;;;4977183;28;20706;-87
2022/10/03 05:07:01;;;;;;;3.10;2.63;;;10.00;99.90;;;;;;4977543;28;20215;-87
2022/10/03 05:09:44;;;;;;;4.20;2.43;;;9.90;99.90;;;;;;4977436;28;20207;-87
2022/10/03 05:12:27;;;;;;;2.77;2.57;;;9.90;99.90;;;;;;4993789;28;20202;-87
2022/10/03 05:15:21;;;;;;;3.80;2.30;;;9.90;99.90;;;;;;4977435;28;20270;-87
2022/10/03 05:18:16;;;;;;;3.20;2.43;;;9.90;99.90;;;;;;4993327;28;20215;-87
2022/10/03 05:20:48;;;;;;;2.67;2.40;;;9.90;99.90;;;;;;4977515;28;20240;-87
2022/10/03 05:23:46;;;;;;;2.43;2.20;;;10.00;99.90;;;;;;4977431;28;20179;-87
2022/10/03 05:26:27;;;;;;;2.03;1.90;;;10.00;99.90;;;;;;4993681;28;20206;-87
2022/10/03 05:29:03;;;;;;;2.50;1.97;;;10.00;99.90;;;;;;4973708;28;20224;-87
2022/10/03 05:31:43;;;;;;;2.37;2.07;;;10.00;99.90;;;;;;5007039;28;20699;-87
2022/10/03 05:34:46;;;;;;;2.57;1.97;;;10.00;99.90;;;;;;4993771;28;20201;-87
2022/10/03 05:37:35;;;;;;;2.23;1.80;;;10.00;99.90;;;;;;5006187;28;20206;-86
2022/10/03 05:40:11;;;;;;;2.17;1.93;;;10.00;99.90;;;;;;4974292;28;20187;-87
2022/10/03 05:43:10;;;;;;;2.37;1.93;;;10.00;99.90;;;;;;4977216;28;20186;-87
2022/10/03 05:45:56;;;;;;;2.43;2.20;;;10.10;99.90;;;;;;4977681;28;20310;-87
2022/10/03 05:48:31;;;;;;;3.60;2.13;;;10.10;99.90;;;;;;4993605;28;20230;-87
2022/10/03 05:51:07;;;;;;;4.50;1.87;;;10.10;99.90;;;;;;4993839;28;20178;-87
2022/10/03 05:53:36;;;;;;;1.90;1.80;;;10.10;99.90;;;;;;4997379;28;20233;-87
2022/10/03 05:56:39;;;;;;;1.93;1.63;;;10.10;99.90;;;;;;4997668;28;20199;-87
2022/10/03 05:59:17;;;;;;;2.80;1.50;;;10.10;99.90;;;;;;5011112;28;20210;-87
2022/10/03 06:01:46;;;;;;;2.73;1.80;;;10.10;99.90;;;;;;4978607;28;20172;-86
2022/10/03 06:04:30;;;;;;;3.60;1.77;;;10.10;99.90;;;;;;4981343;28;20265;-87
2022/10/03 06:07:28;;;;;;;2.40;2.20;;;10.20;99.90;;;;;;4997616;28;20214;-86
2022/10/03 06:10:25;;;;;;;2.17;2.00;;;10.20;99.90;;;;;;5014146;28;20215;-86
2022/10/03 06:13:10;;;;;;;2.33;2.00;;;10.20;99.90;;;;;;5013982;28;20527;-86
2022/10/03 06:15:39;;;;;;;3.47;2.20;;;10.20;99.90;;;;;;5013273;28;20191;-86
2022/10/03 06:18:31;;;;;;;4.10;2.60;;;10.20;99.90;;;;;;4986143;28;20553;-86
2022/10/03 06:21:25;;;;;;;3.53;2.93;;;10.20;99.90;;;;;;5013200;28;20191;-86
2022/10/03 06:24:29;;;;;;;5.13;3.00;;;10.20;99.90;;;;;;4985475;28;20207;-87
2022/10/03 06:27:09;;;;;;;3.00;2.60;;;10.20;99.90;;;;;;5026043;28;20207;-86
2022/10/03 06:30:11;;;;;;;5.37;3.10;;;10.20;99.90;;;;;;5011911;28;20256;-86
2022/10/03 06:32:58;;;;;;;4.23;2.77;;;10.20;99.90;;;;;;5020109;28;20182;-86
2022/10/03 06:35:58;;;;;;;3.97;3.27;;;10.20;99.90;;;;;;4979370;28;20199;-87
2022/10/03 06:38:35;;;;;;;5.83;2.97;;;10.30;99.90;;;;;;5012172;28;20179;-86
2022/10/03 06:41:32;;;;;;;3.90;3.23;;;10.40;99.90;;;;;;4987754;28;20226;-86
2022/10/03 06:44:25;;;;;;;3.70;3.13;;;10.40;99.90;;;;;;5011240;28;20183;-86
2022/10/03 06:47:00;;;;;;;3.33;3.03;;;10.40;99.90;;;;;;4987619;28;20207;-86
2022/10/03 06:49:35;;;;;;;3.33;2.67;;;10.50;99.90;;;;;;4982292;28;20272;-86
2022/10/03 06:55:36;;;;;;;3.10;2.80;;;10.40;99.90;;;;;;4998088;28;20210;-87
2022/10/03 06:58:22;;;;;;;3.50;2.80;;;10.50;99.90;;;;;;4979791;28;20242;-86
2022/10/03 07:01:06;;;;;;;3.97;3.53;;;10.50;99.90;;;;;;4996576;28;20191;-87
2022/10/03 07:03:53;;;;;;;3.10;2.80;;;10.60;99.90;;;;;;4992562;28;20287;-86
2022/10/03 07:06:37;;;;;;;3.07;2.73;;;10.60;99.90;;;;;;5001721;28;20253;-87
2022/10/03 07:09:22;;;;;;;4.40;3.10;;;10.70;99.90;;;;;;5012102;28;20215;-87
2022/10/03 07:12:05;;;;;;;4.47;3.70;;;10.70;99.90;;;;;;5012249;28;20276;-87
2022/10/03 07:14:51;;;;;;;5.07;3.23;;;10.70;99.90;;;;;;4979917;28;20188;-86
2022/10/03 07:17:53;;;;;;;5.30;3.67;;;10.70;99.90;;;;;;5009434;28;20226;-86
2022/10/03 07:21:13;;;;;;;7.17;4.77;;;10.80;99.90;;;;;;4945084;28;20192;-86
2022/10/03 07:24:13;;;;;;;6.30;4.17;;;10.80;99.90;;;;;;4949431;28;20200;-86
2022/10/03 07:27:18;;;;;;;5.67;4.23;;;10.90;99.90;;;;;;5002121;28;20198;-86
2022/10/03 07:33:36;;;;;;;6.53;4.33;;;10.90;99.90;;;;;;5007581;28;20183;-88
2022/10/03 07:40:02;;;;;;;5.70;4.30;;;11.10;99.90;;;;;;5012558;28;20207;-85
2022/10/03 07:42:38;;;;;;;5.40;4.90;;;11.20;99.90;;;;;;5016672;28;20246;-86
2022/10/03 07:45:21;;;;;;;6.30;5.50;;;11.30;99.90;;;;;;5012597;28;20212;-86
2022/10/03 07:48:21;;;;;;;6.03;4.90;;;11.30;99.90;;;;;;5007268;28;20644;-86
2022/10/03 07:51:06;;;;;;;7.07;5.23;;;11.40;99.90;;;;;;5005996;28;20177;-86
2022/10/03 07:53:44;;;;;;;7.83;5.13;;;11.50;99.90;;;;;;5024481;28;20618;-86
2022/10/03 07:56:32;;;;;;;7.27;4.83;;;11.60;99.90;;;;;;4986309;28;20193;-86
2022/10/03 07:59:19;;;;;;;8.03;5.53;;;11.70;99.90;;;;;;5000853;28;20177;-86
2022/10/03 08:02:23;;;;;;;6.50;5.47;;;11.80;99.90;;;;;;5036880;28;20233;-85
2022/10/03 08:05:24;;;;;;;8.33;5.67;;;11.80;99.90;;;;;;4990680;28;20625;-86
2022/10/03 08:08:12;;;;;;;6.83;6.00;;;11.80;99.90;;;;;;5038054;28;20346;-86
2022/10/03 08:11:27;;;;;;;9.57;6.73;;;11.80;99.90;;;;;;4996391;28;20174;-85
2022/10/03 08:14:15;;;;;;;6.77;5.53;;;11.90;99.90;;;;;;4976160;28;20181;-86
2022/10/03 08:17:11;;;;;;;6.43;5.67;;;11.90;99.90;;;;;;5016070;28;20199;-86
2022/10/03 08:19:46;;;;;;;7.13;5.50;;;11.90;99.90;;;;;;5025586;28;20189;-86
2022/10/03 08:22:57;;;;;;;6.07;5.03;;;12.00;99.90;;;;;;5005644;28;20279;-85
2022/10/03 08:25:26;;;;;;;7.33;6.20;;;12.00;99.90;;;;;;4992966;28;20200;-87
2022/10/03 08:28:30;;;;;;;6.90;6.20;;;12.10;99.90;;;;;;5000733;28;20224;-87
2022/10/03 08:31:24;;;;;;;8.33;6.70;;;12.10;99.90;;;;;;5036211;28;20332;-87
2022/10/03 08:34:18;;;;;;;7.37;6.53;;;12.10;99.90;;;;;;5013217;28;20175;-87
2022/10/03 08:37:26;;;;;;;9.87;6.90;;;12.20;99.90;;;;;;5013811;28;20194;-87
2022/10/03 08:40:10;;;;;;;7.83;6.40;;;12.30;99.90;;;;;;5009278;28;20624;-87
2022/10/03 08:43:04;;;;;;;7.73;6.50;;;12.30;99.90;;;;;;4994492;28;20170;-87
2022/10/03 08:46:08;;;;;;;6.17;5.33;;;12.40;99.90;;;;;;5012685;28;20211;-86
2022/10/03 08:48:40;;;;;;;8.10;6.17;;;12.40;99.90;;;;;;4987467;28;20214;-87
2022/10/03 08:51:31;;;;;;;11.23;7.80;;;12.50;99.90;;;;;;5012638;28;20187;-86
2022/10/03 08:54:13;;;;;;;9.43;7.40;;;12.50;99.90;;;;;;4996340;28;20177;-87
2022/10/03 08:57:13;;;;;;;10.07;7.90;;;12.50;99.90;;;;;;4979977;28;20202;-87
2022/10/03 09:00:04;;;;;;;12.73;7.70;;;12.50;99.90;;;;;;5012597;28;20187;-87
2022/10/03 09:03:00;;;;;;;10.43;8.13;;;12.60;99.90;;;;;;5013032;28;20199;-86
2022/10/03 09:05:36;;;;;;;10.77;7.90;;;12.70;99.90;;;;;;5012259;28;20221;-87
2022/10/03 09:08:37;;;;;;;8.73;7.23;;;12.70;99.90;;;;;;5028617;28;20202;-92
2022/10/03 09:11:25;;;;;;;11.80;7.70;;;12.80;99.90;;;;;;4973385;28;20182;-84
2022/10/03 09:14:10;;;;;;;9.30;7.90;;;13.00;99.90;;;;;;4979793;28;20316;-83
2022/10/03 09:17:01;;;;;;;12.00;8.80;;;13.10;99.90;;;;;;4979552;28;20205;-82
2022/10/03 09:20:02;;;;;;;10.37;9.10;;;13.30;99.90;;;;;;5011058;28;20186;-83
2022/10/03 09:22:48;;;;;;;11.50;7.10;;;13.50;99.90;;;;;;4999513;28;20218;-82
2022/10/03 09:25:34;;;;;;;11.93;8.13;;;13.70;99.90;;;;;;4991232;28;20241;-82
2022/10/03 09:28:46;;;;;;;11.77;7.60;;;13.90;99.90;;;;;;4977538;28;20211;-82
2022/10/03 09:31:46;;;;;;;11.30;7.70;;;14.00;99.90;;;;;;4962699;28;20267;-84
2022/10/03 09:34:31;;;;;;;10.63;8.43;;;14.00;99.90;;;;;;4975562;28;20202;-88
2022/10/03 09:37:30;;;;;;;12.47;8.40;;;14.20;99.90;;;;;;4990368;28;20211;-87
2022/10/03 09:40:24;;;;;;;11.30;7.60;;;14.20;99.90;;;;;;4996219;28;20184;-88
2022/10/03 09:43:17;;;;;;;10.30;7.17;;;14.10;99.90;;;;;;5003112;28;20179;-88
2022/10/03 09:46:16;;;;;;;13.47;8.50;;;14.00;99.90;;;;;;5008749;28;20254;-87
2022/10/03 09:49:29;;;;;;;11.60;7.70;;;14.00;99.90;;;;;;4994420;28;20219;-87
2022/10/03 09:52:24;;;;;;;8.57;6.80;;;13.90;99.90;;;;;;4994139;28;20222;-87
2022/10/03 09:55:17;;;;;;;7.77;6.97;;;13.90;99.90;;;;;;4990624;28;20167;-87
2022/10/03 09:57:51;;;;;;;12.93;7.50;;;13.90;99.90;;;;;;5007863;28;20238;-87
2022/10/03 10:00:51;;;;;;;11.77;6.90;;;13.90;99.90;;;;;;5026928;28;20332;-87
2022/10/03 10:04:01;;;;;;;12.07;8.10;;;13.90;99.90;;;;;;4982871;28;20207;-87
2022/10/03 10:06:47;;;;;;;13.13;8.37;;;14.00;99.90;;;;;;4972183;28;20217;-87
2022/10/03 10:09:37;;;;;;;8.80;7.30;;;14.10;99.90;;;;;;5010578;28;20302;-87
2022/10/03 10:12:32;;;;;;;11.97;7.40;;;14.40;99.90;;;;;;4980149;28;20239;-86
2022/10/03 10:15:20;;;;;;;14.27;8.07;;;14.80;99.90;;;;;;5014306;28;20200;-88
2022/10/03 10:18:11;;;;;;;7.60;6.60;;;14.80;99.90;;;;;;5010993;28;20205;-86
2022/10/03 10:20:40;;;;;;;10.73;7.93;;;15.00;99.90;;;;;;5027490;28;20187;-87
2022/10/03 10:23:14;;;;;;;11.57;7.27;;;15.10;99.90;;;;;;4995420;28;20258;-86
2022/10/03 10:26:00;;;;;;;10.27;6.90;;;15.00;99.90;;;;;;5011912;28;20191;-86
2022/10/03 10:29:22;;;;;;;9.27;6.03;;;14.90;99.90;;;;;;4965052;28;20261;-87
2022/10/03 10:32:28;;;;;;;9.73;6.17;;;14.80;99.90;;;;;;4923127;29;20169;-87
2022/10/03 10:35:14;;;;;;;10.63;6.23;;;14.70;99.90;;;;;;4918281;29;20188;-86
2022/10/03 10:38:14;;;;;;;7.70;5.93;;;14.70;99.90;;;;;;4932395;29;20288;-87
2022/10/03 10:40:58;;;;;;;7.60;5.70;;;14.70;99.90;;;;;;4922368;29;20189;-87
2022/10/03 10:44:15;;;;;;;9.20;5.40;;;15.00;99.90;;;;;;4990189;28;20183;-87
2022/10/03 10:47:33;;;;;;;10.30;5.57;;;15.40;99.90;;;;;;4974383;28;20207;-88
2022/10/03 10:50:42;;;;;;;9.77;5.23;;;15.80;99.90;;;;;;4992696;28;20215;-87
2022/10/03 10:53:44;;;;;;;7.57;5.20;;;16.10;99.90;;;;;;4955480;28;20196;-87
2022/10/03 10:56:35;;;;;;;8.27;5.07;;;16.20;99.90;;;;;;5012416;28;20211;-87
2022/10/03 10:59:26;;;;;;;6.93;4.50;;;16.00;99.90;;;;;;4999272;28;20238;-87
2022/10/03 11:02:42;;;;;;;7.60;4.80;;;16.00;99.90;;;;;;4988164;28;20184;-87
2022/10/03 11:05:50;;;;;;;10.30;5.27;;;15.80;99.90;;;;;;5009833;28;20212;-87
2022/10/03 11:08:50;;;;;;;8.07;5.10;;;15.80;99.90;;;;;;5016747;28;20199;-87
2022/10/03 11:11:50;;;;;;;9.07;4.57;;;16.00;99.90;;;;;;5016583;28;20190;-88
2022/10/03 11:14:54;;;;;;;10.27;5.33;;;16.30;99.90;;;;;;4978628;28;20212;-87
2022/10/03 11:18:02;;;;;;;9.93;5.47;;;16.20;99.90;;;;;;5015529;28;20330;-87
2022/10/03 11:21:03;;;;;;;5.07;4.18;;;16.30;99.90;;;;;;5022987;28;20218;-87
2022/10/03 11:23:48;;;;;;;7.88;4.70;;;16.60;99.90;;;;;;4996112;28;20191;-88
2022/10/03 11:26:52;;;;;;;6.85;4.13;;;16.90;99.90;;;;;;5007138;28;20199;-88
2022/10/03 11:30:02;;;;;;;6.13;3.85;;;17.10;99.90;;;;;;4977999;28;20269;-87
2022/10/03 11:32:51;;;;;;;4.97;3.50;;;17.20;99.90;;;;;;5013948;28;20278;-87
2022/10/03 11:35:41;;;;;;;6.78;3.72;;;17.30;99.90;;;;;;4982394;28;20230;-86
2022/10/03 11:38:28;;;;;;;4.40;3.30;;;17.40;99.90;;;;;;5014150;28;20176;-87
2022/10/03 11:41:00;;;;;;;6.80;3.30;;;17.40;99.90;;;;;;4985511;28;20168;-87
2022/10/03 11:43:58;;;;;;;4.72;2.75;;;17.30;99.90;;;;;;5004907;28;20185;-87
2022/10/03 11:46:59;;;;;;;6.93;2.60;;;17.40;99.90;;;;;;5011953;28;20207;-86
2022/10/03 11:49:57;;;;;;;6.25;2.95;;;17.40;99.90;;;;;;5011960;28;20207;-87
2022/10/03 11:52:30;;;;;;;4.88;2.90;;;17.40;99.90;;;;;;4970433;28;20195;-86
2022/10/03 11:55:23;;;;;;;3.22;2.83;;;17.40;99.90;;;;;;5002471;28;20175;-86
2022/10/03 11:58:14;;;;;;;5.60;2.67;;;17.50;99.90;;;;;;5014811;28;20187;-86
2022/10/03 12:00:44;;;;;;;2.97;2.63;;;17.70;99.90;;;;;;4986535;28;20195;-87
2022/10/03 12:03:42;;;;;;;5.00;2.80;;;17.90;99.90;;;;;;5011132;28;20171;-87
2022/10/03 12:09:29;;;;;;;5.13;2.90;;;18.30;99.90;;;;;;5028825;28;20199;-88
2022/10/03 12:12:26;;;;;;;6.07;2.80;;;18.50;99.90;;;;;;4984214;28;20195;-87
2022/10/03 12:14:59;;;;;;;5.05;2.67;;;18.50;99.90;;;;;;5027480;28;20274;-88
2022/10/03 12:17:38;;;;;;;4.75;3.10;;;18.80;99.90;;;;;;5007457;28;20186;-91
2022/10/03 12:20:25;;;;;;;3.97;2.95;;;19.00;99.90;;;;;;4988274;28;20186;-85
2022/10/03 12:23:40;;;;;;;6.05;3.33;;;19.10;99.90;;;;;;5009607;28;20229;-92
2022/10/03 12:26:15;;;;;;;6.07;3.08;;;19.20;99.90;;;;;;5011583;28;20195;-91
2022/10/03 12:28:48;;;;;;;5.10;2.60;;;18.80;99.90;;;;;;5011440;28;20206;-91
2022/10/03 12:31:20;;;;;;;5.55;3.05;;;18.80;99.90;;;;;;5013868;28;20175;-90
2022/10/03 12:33:55;;;;;;;4.80;3.08;;;18.90;99.90;;;;;;5013412;28;20210;-90
2022/10/03 12:36:58;;;;;;;7.15;3.33;;;19.00;99.90;;;;;;4996772;28;20284;-90
2022/10/03 12:39:50;;;;;;;4.70;2.88;;;19.10;99.90;;;;;;4980802;28;20258;-91
2022/10/03 12:43:07;;;;;;;5.15;2.72;;;19.10;99.90;;;;;;5013244;28;20175;-89
2022/10/03 12:45:59;;;;;;;5.63;2.65;;;19.10;99.90;;;;;;5002695;28;20257;-87
2022/10/03 12:48:46;;;;;;;4.22;2.60;;;19.10;99.90;;;;;;5017499;28;20198;-88
2022/10/03 12:51:25;;;;;;;3.85;2.58;;;19.00;99.90;;;;;;4985651;28;20173;-87
2022/10/03 12:53:56;;;;;;;4.15;2.60;;;18.90;99.90;;;;;;5002599;28;20178;-90
2022/10/03 12:56:47;;;;;;;4.70;2.83;;;19.10;99.90;;;;;;4981197;28;20199;-87
2022/10/03 12:59:43;;;;;;;5.28;2.92;;;19.20;99.90;;;;;;4979660;28;20184;-87
2022/10/03 13:02:21;;;;;;;6.47;2.95;;;19.30;99.90;;;;;;4977371;28;20195;-89
2022/10/03 13:05:18;;;;;;;2.90;2.60;;;19.10;99.90;;;;;;4979482;28;20171;-87
2022/10/03 13:07:56;;;;;;;3.42;2.58;;;19.20;99.90;;;;;;4988117;28;20176;-88
2022/10/03 13:10:30;;;;;;;4.38;2.58;;;19.10;99.90;;;;;;5005020;28;20151;-88
2022/10/03 13:13:01;;;;;;;3.85;2.58;;;19.00;99.90;;;;;;5032819;28;20175;-89
2022/10/03 13:15:33;;;;;;;4.45;2.50;;;18.80;99.90;;;;;;4980146;28;20207;-89
2022/10/03 13:18:29;;;;;;;3.95;3.28;;;18.80;99.90;;;;;;4979557;28;20178;-86
2022/10/03 13:21:08;;;;;;;4.20;2.75;;;18.80;99.90;;;;;;4979784;28;20275;-89
2022/10/03 13:23:38;;;;;;;5.18;2.50;;;18.60;99.90;;;;;;4979052;28;20267;-88
2022/10/03 13:26:07;;;;;;;4.63;2.83;;;18.50;99.90;;;;;;4979595;28;20207;-86
2022/10/03 13:29:16;;;;;;;5.32;2.55;;;18.20;99.90;;;;;;4988821;28;20210;-87
2022/10/03 13:32:03;;;;;;;3.80;2.47;;;18.30;99.90;;;;;;5003853;28;20183;-87
2022/10/03 13:34:45;;;;;;;4.78;2.90;;;18.60;99.90;;;;;;5000608;28;20212;-87
2022/10/03 13:37:56;;;;;;;4.00;2.33;;;18.90;99.90;;;;;;5018438;28;20294;-87
2022/10/03 13:40:37;;;;;;;4.80;2.63;;;19.20;99.90;;;;;;4997804;28;20191;-88
2022/10/03 13:43:12;;;;;;;3.58;2.60;;;19.20;99.90;;;;;;5022000;28;20247;-87
2022/10/03 13:45:43;;;;;;;2.90;2.63;;;19.10;99.90;;;;;;5039428;28;20222;-87
2022/10/03 13:48:20;;;;;;;4.57;2.53;;;19.00;99.90;;;;;;5018851;28;20210;-87
2022/10/03 13:50:57;;;;;;;4.88;2.67;;;18.90;99.90;;;;;;5003935;28;20175;-87
2022/10/03 13:53:47;;;;;;;4.82;2.80;;;19.10;99.90;;;;;;5004252;28;20164;-87
2022/10/03 13:56:35;;;;;;;5.28;2.90;;;19.00;99.90;;;;;;5004162;28;20202;-88
2022/10/03 13:59:02;;;;;;;4.63;2.35;;;19.30;99.90;;;;;;5021017;28;20262;-87
2022/10/03 14:02:03;;;;;;;5.22;2.33;;;19.50;99.90;;;;;;5019694;28;20186;-87
2022/10/03 14:05:11;;;;;;;3.97;2.42;;;19.80;99.90;;;;;;4992290;28;20178;-86
2022/10/03 14:07:54;;;;;;;6.72;2.45;;;19.90;99.90;;;;;;4981754;28;20190;-82
2022/10/03 14:10:52;;;;;;;4.38;2.33;;;20.10;99.90;;;;;;4993625;28;20172;-87
2022/10/03 14:13:47;;;;;;;4.97;2.70;;;20.30;99.90;;;;;;4983188;28;20175;-87
2022/10/03 14:16:33;;;;;;;2.45;2.20;;;20.00;99.90;;;;;;5015638;28;20266;-87
2022/10/03 14:19:32;;;;;;;4.53;2.33;;;20.20;99.90;;;;;;5015269;28;20205;-88
2022/10/03 14:22:22;;;;;;;4.50;2.63;;;20.20;99.90;;;;;;4995048;28;20210;-88
2022/10/03 14:25:31;;;;;;;5.32;2.67;;;20.30;99.90;;;;;;4999971;28;20179;-87
2022/10/03 14:28:25;;;;;;;3.38;2.08;;;20.30;99.90;;;;;;5002102;28;20183;-87
2022/10/03 14:30:54;;;;;;;4.22;2.38;;;20.20;99.90;;;;;;4977516;28;20176;-87
2022/10/03 14:33:29;;;;;;;5.20;2.78;;;20.40;99.90;;;;;;5010599;28;20171;-87
2022/10/03 14:36:17;;;;;;;3.88;2.90;;;20.50;99.90;;;;;;4998935;28;20210;-87
2022/10/03 14:39:04;;;;;;;4.07;2.50;;;20.50;99.90;;;;;;4998225;28;20179;-87
2022/10/03 14:42:08;;;;;;;4.28;2.60;;;20.50;99.90;;;;;;4993106;28;20175;-87
2022/10/03 14:44:34;;;;;;;3.88;2.60;;;20.70;99.90;;;;;;4960584;28;20190;-82
2022/10/03 14:47:07;;;;;;;4.82;2.70;;;20.60;99.90;;;;;;4978712;28;20210;-85
2022/10/03 14:49:36;;;;;;;5.22;3.03;;;20.50;99.90;;;;;;5013261;28;20203;-89
2022/10/03 14:52:22;;;;;;;5.40;3.10;;;20.40;99.90;;;;;;4983626;28;20266;-89
2022/10/03 14:54:54;;;;;;;4.32;2.70;;;20.50;99.90;;;;;;4987480;28;20243;-86